sensor_id;sensor_type;location;lat;lon;timestamp;pressure;altitude;pressure_sealevel;temperature;humidity
35647;BME280;28680;45.642;13.756;2023-02-23T00:00:31;101233.19;;;11.05;100.00
35647;BME280;28680;45.642;13.756;2023-02-23T00:03:00;101231.38;;;11.05;100.00
35647;BME280;28680;45.642;13.756;2023-02-23T00:05:34;101234.66;;;10.96;100.00
35647;BME280;28680;45.642;13.756;2023-02-23T00:08:00;101221.53;;;10.96;100.00
35647;BME280;28680;45.642;13.756;2023-02-23T00:10:26;101230.69;;;10.90;100.00
35647;BME280;28680;45.642;13.756;2023-02-23T00:12:59;101226.94;;;10.95;100.00
35647;BME280;28680;45.642;13.756;2023-02-23T00:15:26;101225.97;;;10.96;100.00
35647;BME280;28680;45.642;13.756;2023-02-23T00:17:53;101224.69;;;11.01;100.00
35647;BME280;28680;45.642;13.756;2023-02-23T00:20:25;101224.56;;;11.03;100.00
35647;BME280;28680;45.642;13.756;2023-02-23T00:22:56;101214.91;;;11.03;100.00
35647;BME280;28680;45.642;13.756;2023-02-23T00:25:23;101236.56;;;10.94;100.00
35647;BME280;28680;45.642;13.756;2023-02-23T00:27:50;101232.59;;;10.88;100.00
35647;BME280;28680;45.642;13.756;2023-02-23T00:30:18;101232.91;;;10.97;100.00
35647;BME280;28680;45.642;13.756;2023-02-23T00:32:44;101231.16;;;10.84;100.00
35647;BME280;28680;45.642;13.756;2023-02-23T00:35:11;101232.59;;;10.88;100.00
35647;BME280;28680;45.642;13.756;2023-02-23T00:37:48;101234.59;;;10.85;100.00
35647;BME280;28680;45.642;13.756;2023-02-23T00:40:16;101233.59;;;10.75;100.00
35647;BME280;28680;45.642;13.756;2023-02-23T00:42:47;101227.63;;;10.72;100.00
35647;BME280;28680;45.642;13.756;2023-02-23T00:45:15;101233.41;;;10.65;100.00
35647;BME280;28680;45.642;13.756;2023-02-23T00:47:43;101240.47;;;10.64;100.00
35647;BME280;28680;45.642;13.756;2023-02-23T00:50:14;101232.59;;;10.64;100.00
35647;BME280;28680;45.642;13.756;2023-02-23T00:52:42;101234.97;;;10.67;100.00
35647;BME280;28680;45.642;13.756;2023-02-23T00:55:11;101224.72;;;10.64;100.00
35647;BME280;28680;45.642;13.756;2023-02-23T00:57:38;101236.25;;;10.62;100.00
35647;BME280;28680;45.642;13.756;2023-02-23T01:00:07;101240.75;;;10.72;100.00
35647;BME280;28680;45.642;13.756;2023-02-23T01:02:43;101244.44;;;10.70;100.00
35647;BME280;28680;45.642;13.756;2023-02-23T01:05:09;101248.34;;;10.64;100.00
35647;BME280;28680;45.642;13.756;2023-02-23T01:07:39;101248.56;;;10.48;100.00
35647;BME280;28680;45.642;13.756;2023-02-23T01:10:06;101241.09;;;10.55;100.00
35647;BME280;28680;45.642;13.756;2023-02-23T01:12:46;101241.19;;;10.53;100.00
35647;BME280;28680;45.642;13.756;2023-02-23T01:15:13;101240.69;;;10.48;100.00
35647;BME280;28680;45.642;13.756;2023-02-23T01:17:38;101235.63;;;10.58;100.00
35647;BME280;28680;45.642;13.756;2023-02-23T01:20:05;101226.72;;;10.61;100.00
35647;BME280;28680;45.642;13.756;2023-02-23T01:22:49;101234.78;;;10.58;100.00
35647;BME280;28680;45.642;13.756;2023-02-23T01:25:17;101234.44;;;10.62;100.00
35647;BME280;28680;45.642;13.756;2023-02-23T01:27:44;101230.06;;;10.63;100.00
35647;BME280;28680;45.642;13.756;2023-02-23T01:30:14;101231.63;;;10.65;100.00
35647;BME280;28680;45.642;13.756;2023-02-23T01:32:40;101231.41;;;10.68;100.00
35647;BME280;28680;45.642;13.756;2023-02-23T01:35:10;101217.78;;;10.63;100.00
35647;BME280;28680;45.642;13.756;2023-02-23T01:37:39;101217.88;;;10.62;100.00
35647;BME280;28680;45.642;13.756;2023-02-23T01:40:18;101208.53;;;10.58;100.00
35647;BME280;28680;45.642;13.756;2023-02-23T01:45:33;101205.19;;;10.56;100.00
35647;BME280;28680;45.642;13.756;2023-02-23T01:48:08;101199.50;;;10.62;100.00
35647;BME280;28680;45.642;13.756;2023-02-23T01:51:00;101205.47;;;10.64;100.00
35647;BME280;28680;45.642;13.756;2023-02-23T01:53:31;101202.47;;;10.57;100.00
35647;BME280;28680;45.642;13.756;2023-02-23T01:56:06;101205.91;;;10.58;100.00
35647;BME280;28680;45.642;13.756;2023-02-23T01:58:41;101199.94;;;10.56;100.00
35647;BME280;28680;45.642;13.756;2023-02-23T02:01:10;101208.63;;;10.56;100.00
35647;BME280;28680;45.642;13.756;2023-02-23T02:03:55;101202.53;;;10.68;100.00
35647;BME280;28680;45.642;13.756;2023-02-23T02:06:24;101201.38;;;10.72;100.00
35647;BME280;28680;45.642;13.756;2023-02-23T02:08:58;101182.72;;;10.64;100.00
35647;BME280;28680;45.642;13.756;2023-02-23T02:11:26;101195.59;;;10.67;100.00
35647;BME280;28680;45.642;13.756;2023-02-23T02:14:08;101201.28;;;10.61;100.00
35647;BME280;28680;45.642;13.756;2023-02-23T02:17:09;101192.25;;;10.65;100.00
35647;BME280;28680;45.642;13.756;2023-02-23T02:29:19;101199.50;;;10.62;100.00
35647;BME280;28680;45.642;13.756;2023-02-23T02:41:08;101197.31;;;10.56;100.00
35647;BME280;28680;45.642;13.756;2023-02-23T02:44:18;101196.34;;;10.57;100.00
35647;BME280;28680;45.642;13.756;2023-02-23T02:46:50;101189.03;;;10.49;100.00
35647;BME280;28680;45.642;13.756;2023-02-23T02:49:31;101194.91;;;10.52;100.00
35647;BME280;28680;45.642;13.756;2023-02-23T02:52:19;101193.00;;;10.54;100.00
35647;BME280;28680;45.642;13.756;2023-02-23T02:54:55;101195.84;;;10.51;100.00
35647;BME280;28680;45.642;13.756;2023-02-23T02:57:26;101203.91;;;10.61;100.00
35647;BME280;28680;45.642;13.756;2023-02-23T02:59:53;101209.78;;;10.65;100.00
35647;BME280;28680;45.642;13.756;2023-02-23T03:02:39;101202.56;;;10.56;100.00
35647;BME280;28680;45.642;13.756;2023-02-23T03:05:44;101196.91;;;10.49;100.00
35647;BME280;28680;45.642;13.756;2023-02-23T03:08:53;101209.41;;;10.45;100.00
35647;BME280;28680;45.642;13.756;2023-02-23T03:12:25;101213.50;;;10.49;100.00
35647;BME280;28680;45.642;13.756;2023-02-23T03:22:21;101214.03;;;10.42;100.00
35647;BME280;28680;45.642;13.756;2023-02-23T03:25:22;101212.06;;;10.32;100.00
35647;BME280;28680;45.642;13.756;2023-02-23T03:28:20;101219.28;;;10.29;100.00
35647;BME280;28680;45.642;13.756;2023-02-23T03:34:31;101215.91;;;10.27;100.00
35647;BME280;28680;45.642;13.756;2023-02-23T03:37:30;101223.06;;;10.25;100.00
35647;BME280;28680;45.642;13.756;2023-02-23T03:40:35;101221.91;;;10.29;100.00
35647;BME280;28680;45.642;13.756;2023-02-23T03:43:35;101214.03;;;10.29;100.00
35647;BME280;28680;45.642;13.756;2023-02-23T03:46:24;101216.34;;;10.33;100.00
35647;BME280;28680;45.642;13.756;2023-02-23T03:49:11;101218.66;;;10.38;100.00
35647;BME280;28680;45.642;13.756;2023-02-23T03:52:04;101215.81;;;10.41;100.00
35647;BME280;28680;45.642;13.756;2023-02-23T03:54:58;101222.75;;;10.42;100.00
35647;BME280;28680;45.642;13.756;2023-02-23T03:57:48;101222.94;;;10.39;100.00
35647;BME280;28680;45.642;13.756;2023-02-23T04:00:42;101226.63;;;10.37;100.00
35647;BME280;28680;45.642;13.756;2023-02-23T04:03:32;101232.41;;;10.42;100.00
35647;BME280;28680;45.642;13.756;2023-02-23T04:06:22;101232.81;;;10.36;100.00
35647;BME280;28680;45.642;13.756;2023-02-23T04:09:08;101228.53;;;10.34;100.00
35647;BME280;28680;45.642;13.756;2023-02-23T04:17:31;101228.09;;;10.41;100.00
35647;BME280;28680;45.642;13.756;2023-02-23T04:19:57;101229.78;;;10.42;100.00
35647;BME280;28680;45.642;13.756;2023-02-23T04:22:24;101233.16;;;10.31;100.00
35647;BME280;28680;45.642;13.756;2023-02-23T04:24:50;101239.28;;;10.30;100.00
35647;BME280;28680;45.642;13.756;2023-02-23T04:27:17;101232.50;;;10.27;100.00
35647;BME280;28680;45.642;13.756;2023-02-23T04:29:43;101236.28;;;10.23;100.00
35647;BME280;28680;45.642;13.756;2023-02-23T04:32:13;101237.56;;;10.30;100.00
35647;BME280;28680;45.642;13.756;2023-02-23T04:34:40;101234.03;;;10.30;100.00
35647;BME280;28680;45.642;13.756;2023-02-23T04:37:07;101233.97;;;10.31;100.00
35647;BME280;28680;45.642;13.756;2023-02-23T04:39:33;101227.25;;;10.27;100.00
35647;BME280;28680;45.642;13.756;2023-02-23T04:41:59;101225.06;;;10.34;100.00
35647;BME280;28680;45.642;13.756;2023-02-23T04:44:25;101228.06;;;10.28;100.00
35647;BME280;28680;45.642;13.756;2023-02-23T04:46:51;101223.56;;;10.30;100.00
35647;BME280;28680;45.642;13.756;2023-02-23T04:49:17;101226.75;;;10.35;100.00
35647;BME280;28680;45.642;13.756;2023-02-23T04:51:43;101233.16;;;10.31;100.00
35647;BME280;28680;45.642;13.756;2023-02-23T04:54:09;101236.28;;;10.23;100.00
35647;BME280;28680;45.642;13.756;2023-02-23T04:56:35;101225.69;;;10.25;100.00
35647;BME280;28680;45.642;13.756;2023-02-23T04:59:01;101221.50;;;10.35;100.00
35647;BME280;28680;45.642;13.756;2023-02-23T05:01:27;101222.91;;;10.26;100.00
35647;BME280;28680;45.642;13.756;2023-02-23T05:03:54;101216.34;;;10.33;100.00
35647;BME280;28680;45.642;13.756;2023-02-23T05:06:20;101218.13;;;10.33;100.00
35647;BME280;28680;45.642;13.756;2023-02-23T05:08:46;101215.19;;;10.38;100.00
35647;BME280;28680;45.642;13.756;2023-02-23T05:11:12;101217.31;;;10.32;100.00
35647;BME280;28680;45.642;13.756;2023-02-23T05:13:38;101211.09;;;10.33;100.00
35647;BME280;28680;45.642;13.756;2023-02-23T05:16:05;101214.69;;;10.32;100.00
35647;BME280;28680;45.642;13.756;2023-02-23T05:18:31;101211.09;;;10.33;100.00
35647;BME280;28680;45.642;13.756;2023-02-23T05:21:07;101211.97;;;10.34;100.00
35647;BME280;28680;45.642;13.756;2023-02-23T05:23:37;101211.72;;;10.37;100.00
35647;BME280;28680;45.642;13.756;2023-02-23T05:26:07;101209.34;;;10.34;100.00
35647;BME280;28680;45.642;13.756;2023-02-23T05:28:35;101214.69;;;10.32;100.00
35647;BME280;28680;45.642;13.756;2023-02-23T05:31:02;101213.69;;;10.21;100.00
35647;BME280;28680;45.642;13.756;2023-02-23T05:33:30;101207.84;;;10.17;100.00
35647;BME280;28680;45.642;13.756;2023-02-23T05:35:56;101208.97;;;10.13;100.00
35647;BME280;28680;45.642;13.756;2023-02-23T05:38:23;101208.78;;;10.16;100.00
35647;BME280;28680;45.642;13.756;2023-02-23T05:40:49;101214.34;;;10.11;100.00
35647;BME280;28680;45.642;13.756;2023-02-23T05:43:15;101216.00;;;10.00;100.00
35647;BME280;28680;45.642;13.756;2023-02-23T05:45:42;101224.31;;;10.06;100.00
35647;BME280;28680;45.642;13.756;2023-02-23T05:48:11;101216.00;;;10.12;100.00
35647;BME280;28680;45.642;13.756;2023-02-23T05:50:37;101222.94;;;10.01;100.00
35647;BME280;28680;45.642;13.756;2023-02-23T05:53:04;101211.84;;;10.10;100.00
35647;BME280;28680;45.642;13.756;2023-02-23T05:55:30;101212.03;;;10.20;100.00
35647;BME280;28680;45.642;13.756;2023-02-23T05:57:56;101209.94;;;10.25;100.00
35647;BME280;28680;45.642;13.756;2023-02-23T06:00:22;101205.63;;;10.24;100.00
35647;BME280;28680;45.642;13.756;2023-02-23T06:02:48;101215.06;;;10.26;100.00
35647;BME280;28680;45.642;13.756;2023-02-23T06:05:17;101212.44;;;10.26;100.00
35647;BME280;28680;45.642;13.756;2023-02-23T06:07:43;101217.81;;;10.25;100.00
35647;BME280;28680;45.642;13.756;2023-02-23T06:10:10;101210.88;;;10.24;100.00
35647;BME280;28680;45.642;13.756;2023-02-23T06:12:36;101212.66;;;10.23;100.00
35647;BME280;28680;45.642;13.756;2023-02-23T06:15:02;101219.47;;;10.26;100.00
35647;BME280;28680;45.642;13.756;2023-02-23T06:17:28;101220.31;;;10.26;100.00
35647;BME280;28680;45.642;13.756;2023-02-23T06:19:54;101221.69;;;10.19;100.00
35647;BME280;28680;45.642;13.756;2023-02-23T06:22:19;101223.34;;;10.20;100.00
35647;BME280;28680;45.642;13.756;2023-02-23T06:24:45;101230.41;;;10.20;100.00
35647;BME280;28680;45.642;13.756;2023-02-23T06:27:12;101224.44;;;10.30;100.00
35647;BME280;28680;45.642;13.756;2023-02-23T06:29:38;101232.38;;;10.29;100.00
35647;BME280;28680;45.642;13.756;2023-02-23T06:32:04;101235.84;;;10.29;100.00
35647;BME280;28680;45.642;13.756;2023-02-23T06:34:30;101244.53;;;10.30;100.00
35647;BME280;28680;45.642;13.756;2023-02-23T06:36:57;101235.66;;;10.32;100.00
35647;BME280;28680;45.642;13.756;2023-02-23T06:39:23;101233.78;;;10.34;100.00
35647;BME280;28680;45.642;13.756;2023-02-23T06:41:48;101236.94;;;10.40;100.00
35647;BME280;28680;45.642;13.756;2023-02-23T06:44:17;101237.66;;;10.42;100.00
35647;BME280;28680;45.642;13.756;2023-02-23T06:46:43;101249.81;;;10.43;100.00
35647;BME280;28680;45.642;13.756;2023-02-23T06:49:10;101254.25;;;10.42;100.00
35647;BME280;28680;45.642;13.756;2023-02-23T06:51:37;101244.66;;;10.41;100.00
35647;BME280;28680;45.642;13.756;2023-02-23T06:54:03;101250.78;;;10.42;100.00
35647;BME280;28680;45.642;13.756;2023-02-23T06:56:29;101265.56;;;10.43;100.00
35647;BME280;28680;45.642;13.756;2023-02-23T06:58:54;101260.13;;;10.46;100.00
35647;BME280;28680;45.642;13.756;2023-02-23T07:01:20;101263.47;;;10.48;100.00
35647;BME280;28680;45.642;13.756;2023-02-23T07:03:46;101260.84;;;10.48;100.00
35647;BME280;28680;45.642;13.756;2023-02-23T07:06:12;101271.34;;;10.48;100.00
35647;BME280;28680;45.642;13.756;2023-02-23T07:08:38;101271.25;;;10.49;100.00
35647;BME280;28680;45.642;13.756;2023-02-23T07:11:12;101260.66;;;10.51;100.00
35647;BME280;28680;45.642;13.756;2023-02-23T07:13:39;101260.84;;;10.48;100.00
35647;BME280;28680;45.642;13.756;2023-02-23T07:16:06;101255.59;;;10.48;100.00
35647;BME280;28680;45.642;13.756;2023-02-23T07:18:32;101267.56;;;10.52;100.00
35647;BME280;28680;45.642;13.756;2023-02-23T07:20:57;101266.94;;;10.48;100.00
35647;BME280;28680;45.642;13.756;2023-02-23T07:23:23;101270.19;;;10.52;100.00
35647;BME280;28680;45.642;13.756;2023-02-23T07:25:53;101274.50;;;10.53;100.00
35647;BME280;28680;45.642;13.756;2023-02-23T07:28:22;101278.06;;;10.52;100.00
35647;BME280;28680;45.642;13.756;2023-02-23T07:30:50;101281.31;;;10.56;100.00
35647;BME280;28680;45.642;13.756;2023-02-23T07:33:16;101279.13;;;10.49;100.00
35647;BME280;28680;45.642;13.756;2023-02-23T07:35:42;101281.41;;;10.54;100.00
35647;BME280;28680;45.642;13.756;2023-02-23T07:38:09;101287.28;;;10.58;100.00
35647;BME280;28680;45.642;13.756;2023-02-23T07:40:36;101286.22;;;10.60;100.00
35647;BME280;28680;45.642;13.756;2023-02-23T07:43:01;101288.53;;;10.65;100.00
35647;BME280;28680;45.642;13.756;2023-02-23T07:45:27;101292.53;;;10.58;100.00
35647;BME280;28680;45.642;13.756;2023-02-23T07:47:53;101297.88;;;10.69;100.00
35647;BME280;28680;45.642;13.756;2023-02-23T07:50:19;101290.63;;;10.60;100.00
35647;BME280;28680;45.642;13.756;2023-02-23T07:52:54;101289.81;;;10.59;100.00
35647;BME280;28680;45.642;13.756;2023-02-23T07:55:20;101293.69;;;10.53;100.00
35647;BME280;28680;45.642;13.756;2023-02-23T07:57:46;101306.72;;;10.55;100.00
35647;BME280;28680;45.642;13.756;2023-02-23T08:00:13;101296.72;;;10.60;100.00
35647;BME280;28680;45.642;13.756;2023-02-23T08:02:40;101300.94;;;10.63;100.00
35647;BME280;28680;45.642;13.756;2023-02-23T08:05:06;101300.31;;;10.59;100.00
35647;BME280;28680;45.642;13.756;2023-02-23T08:07:33;101293.16;;;10.61;100.00
35647;BME280;28680;45.642;13.756;2023-02-23T08:09:59;101300.06;;;10.62;100.00
35647;BME280;28680;45.642;13.756;2023-02-23T08:12:25;101300.06;;;10.62;100.00
35647;BME280;28680;45.642;13.756;2023-02-23T08:14:51;101302.69;;;10.62;100.00
35647;BME280;28680;45.642;13.756;2023-02-23T08:17:19;101302.59;;;10.64;100.00
35647;BME280;28680;45.642;13.756;2023-02-23T08:19:45;101306.19;;;10.63;100.00
35647;BME280;28680;45.642;13.756;2023-02-23T08:22:10;101303.56;;;10.63;100.00
35647;BME280;28680;45.642;13.756;2023-02-23T08:24:36;101299.25;;;10.62;100.00
35647;BME280;28680;45.642;13.756;2023-02-23T08:27:03;101302.41;;;10.67;100.00
35647;BME280;28680;45.642;13.756;2023-02-23T08:29:29;101302.50;;;10.65;100.00
35647;BME280;28680;45.642;13.756;2023-02-23T08:31:55;101303.31;;;10.66;100.00
35647;BME280;28680;45.642;13.756;2023-02-23T08:34:22;101289.56;;;10.62;100.00
35647;BME280;28680;45.642;13.756;2023-02-23T08:36:49;101299.44;;;10.71;100.00
35647;BME280;28680;45.642;13.756;2023-02-23T08:39:15;101301.03;;;10.74;100.00
35647;BME280;28680;45.642;13.756;2023-02-23T08:41:41;101298.16;;;10.77;100.00
35647;BME280;28680;45.642;13.756;2023-02-23T08:44:07;101300.69;;;10.79;100.00
35647;BME280;28680;45.642;13.756;2023-02-23T08:46:33;101298.38;;;10.87;100.00
35647;BME280;28680;45.642;13.756;2023-02-23T08:48:59;101299.41;;;10.97;100.00
35647;BME280;28680;45.642;13.756;2023-02-23T08:51:25;101294.78;;;10.88;100.00
35647;BME280;28680;45.642;13.756;2023-02-23T08:53:51;101299.84;;;10.91;100.00
35647;BME280;28680;45.642;13.756;2023-02-23T08:56:17;101294.78;;;10.88;100.00
35647;BME280;28680;45.642;13.756;2023-02-23T08:58:43;101300.03;;;10.88;100.00
35647;BME280;28680;45.642;13.756;2023-02-23T09:01:18;101295.88;;;10.85;100.00
35647;BME280;28680;45.642;13.756;2023-02-23T09:03:44;101302.88;;;10.85;100.00
35647;BME280;28680;45.642;13.756;2023-02-23T09:06:19;101304.84;;;10.94;100.00
35647;BME280;28680;45.642;13.756;2023-02-23T09:08:45;101303.94;;;10.82;100.00
35647;BME280;28680;45.642;13.756;2023-02-23T09:11:11;101314.00;;;10.88;100.00
35647;BME280;28680;45.642;13.756;2023-02-23T09:13:37;101322.50;;;10.92;100.00
35647;BME280;28680;45.642;13.756;2023-02-23T09:16:03;101320.84;;;10.91;100.00
35647;BME280;28680;45.642;13.756;2023-02-23T09:18:29;101320.84;;;10.91;100.00
35647;BME280;28680;45.642;13.756;2023-02-23T09:20:57;101322.50;;;10.92;100.00
35647;BME280;28680;45.642;13.756;2023-02-23T09:23:27;101322.84;;;10.87;100.00
35647;BME280;28680;45.642;13.756;2023-02-23T09:25:53;101319.78;;;10.93;100.00
35647;BME280;28680;45.642;13.756;2023-02-23T09:28:19;101323.03;;;10.97;100.00
35647;BME280;28680;45.642;13.756;2023-02-23T09:30:46;101321.13;;;10.99;100.00
35647;BME280;28680;45.642;13.756;2023-02-23T09:33:13;101327.13;;;11.01;100.00
35647;BME280;28680;45.642;13.756;2023-02-23T09:35:39;101331.63;;;11.12;100.00
35647;BME280;28680;45.642;13.756;2023-02-23T09:38:07;101332.47;;;11.12;100.00
35647;BME280;28680;45.642;13.756;2023-02-23T09:40:54;101329.31;;;11.07;100.00
35647;BME280;28680;45.642;13.756;2023-02-23T09:43:46;101328.69;;;11.04;100.00
35647;BME280;28680;45.642;13.756;2023-02-23T09:46:30;101331.94;;;11.07;100.00
35647;BME280;28680;45.642;13.756;2023-02-23T09:49:02;101333.59;;;11.21;100.00
35647;BME280;28680;45.642;13.756;2023-02-23T09:51:29;101320.06;;;11.39;100.00
35647;BME280;28680;45.642;13.756;2023-02-23T10:15:33;101324.56;;;12.09;100.00
35647;BME280;28680;45.642;13.756;2023-02-23T10:18:22;101328.66;;;12.13;100.00
35647;BME280;28680;45.642;13.756;2023-02-23T10:26:52;101338.25;;;12.25;100.00
35647;BME280;28680;45.642;13.756;2023-02-23T10:29:29;101331.22;;;12.37;100.00
35647;BME280;28680;45.642;13.756;2023-02-23T10:32:17;101331.94;;;12.39;100.00
35647;BME280;28680;45.642;13.756;2023-02-23T10:34:47;101332.19;;;12.36;100.00
35647;BME280;28680;45.642;13.756;2023-02-23T10:37:16;101327.63;;;12.38;100.00
35647;BME280;28680;45.642;13.756;2023-02-23T10:39:42;101328.47;;;12.39;100.00
35647;BME280;28680;45.642;13.756;2023-02-23T10:42:15;101327.03;;;12.35;100.00
35647;BME280;28680;45.642;13.756;2023-02-23T10:44:45;101332.41;;;12.33;100.00
35647;BME280;28680;45.642;13.756;2023-02-23T10:47:21;101328.00;;;12.45;100.00
35647;BME280;28680;45.642;13.756;2023-02-23T10:49:54;101322.72;;;12.45;100.00
35647;BME280;28680;45.642;13.756;2023-02-23T10:52:41;101323.34;;;12.60;100.00
35647;BME280;28680;45.642;13.756;2023-02-23T10:55:29;101321.31;;;12.63;100.00
35647;BME280;28680;45.642;13.756;2023-02-23T10:58:17;101321.31;;;12.52;100.00
35647;BME280;28680;45.642;13.756;2023-02-23T11:01:00;101322.75;;;12.79;100.00
35647;BME280;28680;45.642;13.756;2023-02-23T11:03:36;101318.78;;;12.62;100.00
35647;BME280;28680;45.642;13.756;2023-02-23T11:06:03;101318.88;;;12.49;100.00
35647;BME280;28680;45.642;13.756;2023-02-23T11:08:36;101316.75;;;12.54;100.00
35647;BME280;28680;45.642;13.756;2023-02-23T11:13:46;101314.19;;;12.30;100.00
35647;BME280;28680;45.642;13.756;2023-02-23T11:16:24;101313.59;;;12.26;100.00
35647;BME280;28680;45.642;13.756;2023-02-23T11:19:00;101306.19;;;12.20;100.00
35647;BME280;28680;45.642;13.756;2023-02-23T11:24:25;101304.25;;;12.22;100.00
35647;BME280;28680;45.642;13.756;2023-02-23T11:26:57;101303.44;;;12.22;100.00
35647;BME280;28680;45.642;13.756;2023-02-23T11:29:40;101300.31;;;12.17;100.00
35647;BME280;28680;45.642;13.756;2023-02-23T11:32:14;101296.16;;;12.25;100.00
35647;BME280;28680;45.642;13.756;2023-02-23T11:34:42;101296.25;;;12.24;100.00
35647;BME280;28680;45.642;13.756;2023-02-23T11:37:20;101299.28;;;12.31;100.00
35647;BME280;28680;45.642;13.756;2023-02-23T11:39:59;101300.22;;;12.29;100.00
35647;BME280;28680;45.642;13.756;2023-02-23T11:42:30;101296.03;;;12.27;100.00
35647;BME280;28680;45.642;13.756;2023-02-23T11:45:06;101297.38;;;12.44;100.00
35647;BME280;28680;45.642;13.756;2023-02-23T11:47:37;101291.72;;;12.37;100.00
35647;BME280;28680;45.642;13.756;2023-02-23T11:50:05;101291.94;;;12.23;100.00
35647;BME280;28680;45.642;13.756;2023-02-23T11:52:31;101295.28;;;12.14;100.00
35647;BME280;28680;45.642;13.756;2023-02-23T11:55:06;101294.78;;;12.08;100.00
35647;BME280;28680;45.642;13.756;2023-02-23T11:57:35;101290.47;;;12.07;100.00
35647;BME280;28680;45.642;13.756;2023-02-23T12:00:19;101291.44;;;12.06;100.00
35647;BME280;28680;45.642;13.756;2023-02-23T12:02:58;101285.00;;;12.11;100.00
35647;BME280;28680;45.642;13.756;2023-02-23T12:05:30;101279.72;;;12.11;100.00
35647;BME280;28680;45.642;13.756;2023-02-23T12:10:47;101293.09;;;12.07;100.00
35647;BME280;28680;45.642;13.756;2023-02-23T12:13:40;101288.81;;;12.06;100.00
35647;BME280;28680;45.642;13.756;2023-02-23T12:16:28;101283.22;;;11.87;100.00
35647;BME280;28680;45.642;13.756;2023-02-23T12:19:35;101287.75;;;11.85;100.00
35647;BME280;28680;45.642;13.756;2023-02-23T12:22:33;101284.97;;;11.75;100.00
35647;BME280;28680;45.642;13.756;2023-02-23T12:25:08;101285.25;;;11.83;100.00
35647;BME280;28680;45.642;13.756;2023-02-23T12:27:45;101279.75;;;11.86;100.00
35647;BME280;28680;45.642;13.756;2023-02-23T12:36:22;101271.97;;;11.85;100.00
35647;BME280;28680;45.642;13.756;2023-02-23T12:38:56;101267.41;;;11.76;100.00
35647;BME280;28680;45.642;13.756;2023-02-23T12:41:46;101275.03;;;11.67;100.00
35647;BME280;28680;45.642;13.756;2023-02-23T12:44:53;101267.53;;;11.74;100.00
35647;BME280;28680;45.642;13.756;2023-02-23T12:50:55;101265.03;;;11.73;100.00
35647;BME280;28680;45.642;13.756;2023-02-23T12:53:42;101269.56;;;11.70;100.00
35647;BME280;28680;45.642;13.756;2023-02-23T13:01:30;101277.44;;;11.95;100.00
35647;BME280;28680;45.642;13.756;2023-02-23T13:04:17;101277.59;;;11.80;100.00
35647;BME280;28680;45.642;13.756;2023-02-23T13:09:34;101267.59;;;11.61;100.00
35647;BME280;28680;45.642;13.756;2023-02-23T13:15:43;101277.72;;;11.55;100.00
35647;BME280;28680;45.642;13.756;2023-02-23T13:22:03;101274.22;;;11.43;100.00
35647;BME280;28680;45.642;13.756;2023-02-23T13:24:38;101274.66;;;11.37;100.00
35647;BME280;28680;45.642;13.756;2023-02-23T13:27:39;101273.84;;;11.36;100.00
35647;BME280;28680;45.642;13.756;2023-02-23T13:30:10;101274.88;;;11.34;100.00
35647;BME280;28680;45.642;13.756;2023-02-23T13:32:36;101277.41;;;11.35;100.00
35647;BME280;28680;45.642;13.756;2023-02-23T13:35:05;101280.03;;;11.35;100.00
35647;BME280;28680;45.642;13.756;2023-02-23T13:40:58;101276.91;;;11.30;100.00
35647;BME280;28680;45.642;13.756;2023-02-23T13:43:55;101279.75;;;11.27;100.00
35647;BME280;28680;45.642;13.756;2023-02-23T13:49:39;101288.13;;;11.32;100.00
35647;BME280;28680;45.642;13.756;2023-02-23T13:52:37;101286.56;;;11.29;100.00
35647;BME280;28680;45.642;13.756;2023-02-23T13:58:14;101289.56;;;11.25;100.00
35647;BME280;28680;45.642;13.756;2023-02-23T14:00:41;101281.22;;;11.31;100.00
35647;BME280;28680;45.642;13.756;2023-02-23T14:03:22;101286.38;;;11.32;100.00
35647;BME280;28680;45.642;13.756;2023-02-23T14:05:55;101278.47;;;11.32;100.00
35647;BME280;28680;45.642;13.756;2023-02-23T14:08:35;101288.19;;;11.43;100.00
35647;BME280;28680;45.642;13.756;2023-02-23T14:11:04;101290.34;;;11.38;100.00
35647;BME280;28680;45.642;13.756;2023-02-23T14:13:34;101288.09;;;11.45;100.00
35647;BME280;28680;45.642;13.756;2023-02-23T14:16:17;101291.69;;;11.44;100.00
35647;BME280;28680;45.642;13.756;2023-02-23T14:24:20;101300.19;;;11.47;100.00
35647;BME280;28680;45.642;13.756;2023-02-23T14:27:21;101307.22;;;11.47;100.00
35647;BME280;28680;45.642;13.756;2023-02-23T14:32:44;101302.84;;;11.35;100.00
35647;BME280;28680;45.642;13.756;2023-02-23T14:38:30;101301.28;;;11.32;100.00
35647;BME280;28680;45.642;13.756;2023-02-23T14:41:00;101304.97;;;11.29;100.00
35647;BME280;28680;45.642;13.756;2023-02-23T14:43:41;101310.03;;;11.32;100.00
35647;BME280;28680;45.642;13.756;2023-02-23T14:46:22;101306.16;;;11.25;100.00
35647;BME280;28680;45.642;13.756;2023-02-23T14:49:07;101307.94;;;11.25;100.00
35647;BME280;28680;45.642;13.756;2023-02-23T14:51:52;101305.19;;;11.26;100.00
35647;BME280;28680;45.642;13.756;2023-02-23T14:54:37;101304.03;;;11.30;100.00
35647;BME280;28680;45.642;13.756;2023-02-23T14:57:16;101311.56;;;11.35;100.00
35647;BME280;28680;45.642;13.756;2023-02-23T14:59:43;101312.31;;;11.37;100.00